Time;durP1;ratioP1;P1;durP2;ratioP2;P2;SDS_P1;SDS_P2;PMS_P1;PMS_P2;Temp;Humidity;BMP_temperature;BMP_pressure;BME280_temperature;BME280_humidity;BME280_pressure;Samples;Min_cycle;Max_cycle;Signal;HPM_P1;HPM_P2
2023/10/24 00:01:13;;;;;;;;;;;10.00;99.90;;;;;;5023756;28;19981;-72
2023/10/24 00:03:38;;;;;;;;;;;10.00;99.90;;;;;;5037879;28;19925;-72
2023/10/24 00:06:04;;;;;;;;;;;10.00;99.90;;;;;;5007797;28;19921;-71
2023/10/24 00:08:30;;;;;;;;;;;10.00;99.90;;;;;;5036967;28;19956;-70
2023/10/24 00:11:00;;;;;;;;;;;10.00;99.90;;;;;;5003737;28;19943;-72
2023/10/24 00:13:26;;;;;;;;;;;10.00;99.90;;;;;;5036327;28;20408;-72
2023/10/24 00:15:52;;;;;;;;;;;10.00;99.90;;;;;;4996436;28;19925;-71
2023/10/24 00:18:17;;;;;;;;;;;10.00;99.90;;;;;;5039194;28;19925;-72
2023/10/24 00:20:43;;;;;;;;;;;10.00;99.90;;;;;;5002333;28;19925;-72
2023/10/24 00:23:09;;;;;;;;;;;10.00;99.90;;;;;;5040683;28;19947;-72
2023/10/24 00:25:35;;;;;;;;;;;10.00;99.90;;;;;;4999189;28;19935;-72
2023/10/24 00:28:01;;;;;;;;;;;10.10;99.90;;;;;;5045268;28;20658;-72
2023/10/24 00:30:27;;;;;;;;;;;10.10;99.90;;;;;;4993230;28;19927;-73
2023/10/24 00:32:53;;;;;;;;;;;10.00;99.90;;;;;;4997830;28;19925;-72
2023/10/24 00:35:19;;;;;;;;;;;10.00;99.90;;;;;;4980786;28;19928;-71
2023/10/24 00:37:45;;;;;;;;;;;10.10;99.90;;;;;;5046075;28;19921;-72
2023/10/24 00:40:11;;;;;;;;;;;10.00;99.90;;;;;;4977710;28;19940;-72
2023/10/24 00:42:37;;;;;;;;;;;10.00;99.90;;;;;;5047104;28;19925;-72
2023/10/24 00:45:03;;;;;;;;;;;10.10;99.90;;;;;;4992591;28;19945;-71
2023/10/24 00:47:29;;;;;;;;;;;10.00;99.90;;;;;;5029818;28;19949;-72
2023/10/24 00:49:55;;;;;;;;;;;10.00;99.90;;;;;;4971448;28;189131;-73
2023/10/24 00:52:21;;;;;;;;;;;10.00;99.90;;;;;;5017515;28;20384;-73
2023/10/24 00:54:47;;;;;;;;;;;10.00;99.90;;;;;;4987647;28;19930;-77
2023/10/24 00:57:13;;;;;;;;;;;9.90;99.90;;;;;;5020133;28;173349;-75
2023/10/24 00:59:39;;;;;;;;;;;9.90;99.90;;;;;;5024186;28;19925;-74
2023/10/24 01:02:06;;;;;;;;;;;9.90;99.90;;;;;;5033819;28;19924;-74
2023/10/24 01:04:32;;;;;;;;;;;9.90;99.90;;;;;;5025187;28;20039;-73
2023/10/24 01:06:59;;;;;;;;;;;9.90;99.90;;;;;;5013781;28;19924;-72
2023/10/24 01:09:25;;;;;;;;;;;9.90;99.90;;;;;;5026246;28;19929;-74
2023/10/24 01:11:54;;;;;;;;;;;9.90;99.90;;;;;;5016819;28;19920;-74
2023/10/24 01:14:20;;;;;;;;;;;9.90;99.90;;;;;;5023929;28;19929;-73
2023/10/24 01:16:46;;;;;;;;;;;9.90;99.90;;;;;;4970103;28;19929;-74
2023/10/24 01:19:12;;;;;;;;;;;9.90;99.90;;;;;;5007536;28;19931;-74
2023/10/24 01:21:45;;;;;;;;;;;9.90;99.90;;;;;;5010436;28;19935;-74
2023/10/24 01:24:15;;;;;;;;;;;9.90;99.90;;;;;;5009226;28;19925;-74
2023/10/24 01:26:42;;;;;;;;;;;9.90;99.90;;;;;;4983574;28;19940;-74
2023/10/24 01:29:08;;;;;;;;;;;9.90;99.90;;;;;;5007169;28;19929;-74
2023/10/24 01:31:34;;;;;;;;;;;10.00;99.90;;;;;;4979863;28;19925;-74
2023/10/24 01:34:00;;;;;;;;;;;10.00;99.90;;;;;;5007545;28;19921;-74
2023/10/24 01:36:26;;;;;;;;;;;10.00;99.90;;;;;;4999657;28;19921;-74
2023/10/24 01:38:52;;;;;;;;;;;10.00;99.90;;;;;;5007799;28;19928;-73
2023/10/24 01:41:19;;;;;;;;;;;10.00;99.90;;;;;;5005150;28;21236;-73
2023/10/24 01:43:45;;;;;;;;;;;10.00;99.90;;;;;;5026806;28;19928;-74
2023/10/24 01:46:10;;;;;;;;;;;10.00;99.90;;;;;;4989084;28;19921;-74
2023/10/24 01:48:36;;;;;;;;;;;10.00;99.90;;;;;;5014998;28;19928;-74
2023/10/24 01:51:02;;;;;;;;;;;10.00;99.90;;;;;;4982740;28;207364;-75
2023/10/24 01:53:28;;;;;;;;;;;10.00;99.90;;;;;;5030805;28;19925;-74
2023/10/24 01:55:54;;;;;;;;;;;10.00;99.90;;;;;;5001026;28;19924;-72
2023/10/24 01:58:20;;;;;;;;;;;10.10;99.90;;;;;;5030889;28;19952;-75
2023/10/24 02:00:46;;;;;;;;;;;10.10;99.90;;;;;;4996497;28;19924;-73
2023/10/24 02:03:12;;;;;;;;;;;10.10;99.90;;;;;;5031833;28;19929;-74
2023/10/24 02:05:41;;;;;;;;;;;10.10;99.90;;;;;;5000566;28;19928;-74
2023/10/24 02:08:07;;;;;;;;;;;10.10;99.90;;;;;;5029052;28;19997;-73
2023/10/24 02:10:33;;;;;;;;;;;10.10;99.90;;;;;;4979256;28;20550;-73
2023/10/24 02:12:58;;;;;;;;;;;10.10;99.90;;;;;;5022539;28;19940;-72
2023/10/24 02:15:25;;;;;;;;;;;10.20;99.90;;;;;;4978715;28;19927;-73
2023/10/24 02:17:51;;;;;;;;;;;10.20;99.90;;;;;;5023432;28;20297;-73
2023/10/24 02:20:17;;;;;;;;;;;10.20;99.90;;;;;;4974234;28;19928;-73
2023/10/24 02:22:46;;;;;;;;;;;10.20;99.90;;;;;;5011729;28;19926;-73
2023/10/24 02:25:12;;;;;;;;;;;10.20;99.90;;;;;;4970651;28;19925;-74
2023/10/24 02:27:38;;;;;;;;;;;10.20;99.90;;;;;;5013218;28;19960;-74
2023/10/24 02:30:04;;;;;;;;;;;10.30;99.90;;;;;;4974245;28;20374;-72
2023/10/24 02:32:30;;;;;;;;;;;10.30;99.90;;;;;;5035595;28;19936;-73
2023/10/24 02:34:56;;;;;;;;;;;10.30;99.90;;;;;;4985242;28;112855;-72
2023/10/24 02:37:22;;;;;;;;;;;10.30;99.90;;;;;;5033683;28;19943;-71
2023/10/24 02:39:49;;;;;;;;;;;10.40;99.90;;;;;;5004680;28;19931;-72
2023/10/24 02:42:18;;;;;;;;;;;10.40;99.90;;;;;;4982530;28;19940;-73
2023/10/24 02:44:47;;;;;;;;;;;10.30;99.90;;;;;;5019284;28;20362;-73
2023/10/24 02:47:13;;;;;;;;;;;10.40;99.90;;;;;;5017803;28;185370;-72
2023/10/24 02:49:39;;;;;;;;;;;10.40;99.90;;;;;;5011101;28;19924;-74
2023/10/24 02:52:05;;;;;;;;;;;10.40;99.90;;;;;;4999892;28;93330;-73
2023/10/24 02:54:31;;;;;;;;;;;10.40;99.90;;;;;;5020060;28;19928;-72
2023/10/24 02:56:57;;;;;;;;;;;10.40;99.90;;;;;;4982128;28;19921;-71
2023/10/24 02:59:23;;;;;;;;;;;10.40;99.90;;;;;;5006318;28;20406;-73
2023/10/24 03:01:48;;;;;;;;;;;10.50;99.90;;;;;;4966826;28;19969;-73
2023/10/24 03:04:14;;;;;;;;;;;10.50;99.90;;;;;;5003756;28;20388;-73
2023/10/24 03:06:41;;;;;;;;;;;10.60;99.90;;;;;;5010633;28;20023;-72
2023/10/24 03:09:06;;;;;;;;;;;10.60;99.90;;;;;;5025821;28;19925;-73
2023/10/24 03:11:32;;;;;;;;;;;10.60;99.90;;;;;;4998820;28;19932;-74
2023/10/24 03:13:58;;;;;;;;;;;10.60;99.90;;;;;;5026009;28;19959;-73
2023/10/24 03:16:24;;;;;;;;;;;10.60;99.90;;;;;;5009368;28;19936;-72
2023/10/24 03:18:50;;;;;;;;;;;10.60;99.90;;;;;;5029157;28;19929;-73
2023/10/24 03:21:16;;;;;;;;;;;10.70;99.90;;;;;;4986342;28;20419;-71
2023/10/24 03:23:44;;;;;;;;;;;10.60;99.90;;;;;;5000268;28;19929;-72
2023/10/24 03:26:10;;;;;;;;;;;10.60;99.90;;;;;;4993880;28;19921;-73
2023/10/24 03:28:36;;;;;;;;;;;10.70;99.90;;;;;;5028307;28;20004;-72
2023/10/24 03:31:02;;;;;;;;;;;10.70;99.90;;;;;;5004793;28;19944;-74
2023/10/24 03:33:29;;;;;;;;;;;10.70;99.90;;;;;;5040133;28;19929;-75
2023/10/24 03:35:55;;;;;;;;;;;10.70;99.90;;;;;;4997480;28;19925;-73
2023/10/24 03:38:21;;;;;;;;;;;10.70;99.90;;;;;;5030767;28;19921;-73
2023/10/24 03:40:47;;;;;;;;;;;10.70;99.90;;;;;;4991025;28;19932;-72
2023/10/24 03:43:12;;;;;;;;;;;10.70;99.90;;;;;;5025655;28;19934;-74
2023/10/24 03:45:38;;;;;;;;;;;10.70;99.90;;;;;;4988413;28;19938;-73
2023/10/24 03:48:07;;;;;;;;;;;10.70;99.90;;;;;;5041453;28;19932;-73
2023/10/24 03:50:37;;;;;;;;;;;10.80;99.90;;;;;;4982132;28;175244;-73
2023/10/24 03:53:04;;;;;;;;;;;10.80;99.90;;;;;;5043462;28;19940;-72
2023/10/24 03:55:33;;;;;;;;;;;10.80;99.90;;;;;;5000464;28;19935;-72
2023/10/24 03:57:59;;;;;;;;;;;10.80;99.90;;;;;;5043405;28;19928;-73
2023/10/24 04:00:26;;;;;;;;;;;10.80;99.90;;;;;;4973571;28;19996;-71
2023/10/24 04:02:55;;;;;;;;;;;10.80;99.90;;;;;;5015556;28;19940;-72
2023/10/24 04:05:21;;;;;;;;;;;10.80;99.90;;;;;;4995050;28;19943;-72
2023/10/24 04:07:48;;;;;;;;;;;10.90;99.90;;;;;;5047762;28;19925;-74
2023/10/24 04:10:14;;;;;;;;;;;10.80;99.90;;;;;;4999542;28;20394;-72
2023/10/24 04:12:40;;;;;;;;;;;10.90;99.90;;;;;;5063762;28;20347;-72
2023/10/24 04:15:07;;;;;;;;;;;10.80;99.90;;;;;;4990494;28;19934;-73
2023/10/24 04:17:36;;;;;;;;;;;10.90;99.90;;;;;;5050346;28;19925;-73
2023/10/24 04:20:02;;;;;;;;;;;10.90;99.90;;;;;;4988411;28;19925;-72
2023/10/24 04:22:28;;;;;;;;;;;10.90;99.90;;;;;;5015852;28;20324;-72
2023/10/24 04:24:54;;;;;;;;;;;10.90;99.90;;;;;;4983434;28;19929;-75
2023/10/24 04:27:22;;;;;;;;;;;10.90;99.90;;;;;;5015470;28;19937;-74
2023/10/24 04:29:47;;;;;;;;;;;10.90;99.90;;;;;;4987194;28;19925;-72
2023/10/24 04:32:13;;;;;;;;;;;10.90;99.90;;;;;;5021810;28;19928;-73
2023/10/24 04:34:39;;;;;;;;;;;11.00;99.90;;;;;;5024275;28;20376;-72
2023/10/24 04:37:06;;;;;;;;;;;11.00;99.90;;;;;;5017395;28;19933;-72
2023/10/24 04:39:32;;;;;;;;;;;11.00;99.90;;;;;;5026712;28;20446;-75
2023/10/24 04:41:58;;;;;;;;;;;11.00;99.90;;;;;;5013951;28;19933;-73
2023/10/24 04:44:24;;;;;;;;;;;11.00;99.90;;;;;;5022875;28;19929;-73
2023/10/24 04:46:50;;;;;;;;;;;11.00;99.90;;;;;;5031288;28;20436;-72
2023/10/24 04:49:16;;;;;;;;;;;11.10;99.90;;;;;;5027053;28;20280;-72
2023/10/24 04:51:43;;;;;;;;;;;11.10;99.90;;;;;;4981788;28;102988;-72
2023/10/24 04:54:09;;;;;;;;;;;11.10;99.90;;;;;;5003970;28;19925;-74
2023/10/24 04:56:35;;;;;;;;;;;11.10;99.90;;;;;;5011853;28;19929;-72
2023/10/24 04:59:01;;;;;;;;;;;11.10;99.90;;;;;;5025753;28;20584;-72
2023/10/24 05:01:27;;;;;;;;;;;11.10;99.90;;;;;;4987482;28;19932;-72
2023/10/24 05:03:53;;;;;;;;;;;11.20;99.90;;;;;;5001777;28;19929;-71
2023/10/24 05:06:19;;;;;;;;;;;11.10;99.90;;;;;;4965930;28;19936;-72
2023/10/24 05:08:45;;;;;;;;;;;11.20;99.90;;;;;;5023698;28;19931;-72
2023/10/24 05:11:10;;;;;;;;;;;11.20;99.90;;;;;;5006240;28;19929;-73
2023/10/24 05:13:36;;;;;;;;;;;11.10;99.90;;;;;;5022125;28;19921;-73
2023/10/24 05:16:03;;;;;;;;;;;11.10;99.90;;;;;;5004243;28;19924;-73
2023/10/24 05:18:28;;;;;;;;;;;11.20;99.90;;;;;;5027964;28;19925;-73
2023/10/24 05:20:54;;;;;;;;;;;11.20;99.90;;;;;;5002363;28;19934;-73
2023/10/24 05:23:20;;;;;;;;;;;11.20;99.90;;;;;;5032227;28;19936;-73
2023/10/24 05:25:47;;;;;;;;;;;11.20;99.90;;;;;;4999971;28;19924;-75
2023/10/24 05:28:13;;;;;;;;;;;11.20;99.90;;;;;;5031122;28;19921;-74
2023/10/24 05:30:41;;;;;;;;;;;11.30;99.90;;;;;;4995790;28;19925;-74
2023/10/24 05:33:07;;;;;;;;;;;11.20;99.90;;;;;;5034151;28;19925;-74
2023/10/24 05:35:34;;;;;;;;;;;11.20;99.90;;;;;;5015594;28;20490;-76
2023/10/24 05:38:00;;;;;;;;;;;11.20;99.90;;;;;;4988870;28;19922;-73
2023/10/24 05:40:25;;;;;;;;;;;11.20;99.90;;;;;;4958132;28;19928;-72
2023/10/24 05:42:51;;;;;;;;;;;11.20;99.90;;;;;;5026287;28;19936;-74
2023/10/24 05:45:18;;;;;;;;;;;11.20;99.90;;;;;;4995163;28;19920;-74
2023/10/24 05:47:44;;;;;;;;;;;11.20;99.90;;;;;;5038782;28;19922;-73
2023/10/24 05:50:10;;;;;;;;;;;11.20;99.90;;;;;;4978237;28;110860;-72
2023/10/24 05:52:36;;;;;;;;;;;11.10;99.90;;;;;;5059088;28;19921;-72
2023/10/24 05:55:02;;;;;;;;;;;11.10;99.90;;;;;;4988441;28;20225;-73
2023/10/24 05:57:29;;;;;;;;;;;11.10;99.90;;;;;;5031466;28;19944;-75
2023/10/24 05:59:55;;;;;;;;;;;11.20;99.90;;;;;;4984292;28;19944;-77
2023/10/24 06:02:20;;;;;;;;;;;11.10;99.90;;;;;;5020798;28;19932;-73
2023/10/24 06:04:46;;;;;;;;;;;11.10;99.90;;;;;;4985771;28;19929;-73
2023/10/24 06:07:13;;;;;;;;;;;11.20;99.90;;;;;;5014786;28;19922;-74
2023/10/24 06:09:39;;;;;;;;;;;11.10;99.90;;;;;;5003780;28;20315;-72
2023/10/24 06:12:05;;;;;;;;;;;11.10;99.90;;;;;;4977961;28;19936;-74
2023/10/24 06:14:32;;;;;;;;;;;11.10;99.90;;;;;;5005944;28;19925;-72
2023/10/24 06:16:58;;;;;;;;;;;11.10;99.90;;;;;;4963411;28;19936;-75
2023/10/24 06:19:24;;;;;;;;;;;11.10;99.90;;;;;;5005861;28;20348;-72
2023/10/24 06:21:50;;;;;;;;;;;11.10;99.90;;;;;;4999484;28;19928;-73
2023/10/24 06:24:16;;;;;;;;;;;11.10;99.90;;;;;;5038771;28;19941;-73
2023/10/24 06:26:42;;;;;;;;;;;11.10;99.90;;;;;;5020364;28;20003;-72
2023/10/24 06:29:08;;;;;;;;;;;11.10;99.90;;;;;;5010806;28;19925;-72
2023/10/24 06:31:34;;;;;;;;;;;11.10;99.90;;;;;;5003215;28;19924;-74
2023/10/24 06:34:01;;;;;;;;;;;11.20;99.90;;;;;;5027035;28;19922;-74
2023/10/24 06:36:27;;;;;;;;;;;11.10;99.90;;;;;;5009111;28;20425;-73
2023/10/24 06:38:53;;;;;;;;;;;11.10;99.90;;;;;;5028000;28;19937;-73
2023/10/24 06:41:19;;;;;;;;;;;11.10;99.90;;;;;;4992339;28;19925;-74
2023/10/24 06:43:45;;;;;;;;;;;11.10;99.90;;;;;;5002698;28;19934;-73
2023/10/24 06:46:11;;;;;;;;;;;11.20;99.90;;;;;;4980092;28;19928;-74
2023/10/24 06:48:37;;;;;;;;;;;11.10;99.90;;;;;;5047708;28;20414;-74
2023/10/24 06:51:03;;;;;;;;;;;11.20;99.90;;;;;;4994206;28;161029;-74
2023/10/24 06:53:29;;;;;;;;;;;11.10;99.90;;;;;;5031349;28;20901;-74
2023/10/24 06:56:01;;;;;;;;;;;11.10;99.90;;;;;;4997874;28;19954;-75
2023/10/24 06:58:27;;;;;;;;;;;11.10;99.90;;;;;;5040359;28;19925;-72
2023/10/24 07:00:54;;;;;;;;;;;11.20;99.90;;;;;;4972116;28;20019;-73
2023/10/24 07:03:20;;;;;;;;;;;11.10;99.90;;;;;;4991895;28;19936;-72
2023/10/24 07:05:52;;;;;;;;;;;11.20;99.90;;;;;;4982721;28;20422;-72
2023/10/24 07:08:19;;;;;;;;;;;11.20;99.90;;;;;;5016225;28;19926;-74
2023/10/24 07:10:45;;;;;;;;;;;11.20;99.90;;;;;;4967391;28;19925;-72
2023/10/24 07:13:11;;;;;;;;;;;11.20;99.90;;;;;;5039747;28;19947;-74
2023/10/24 07:15:38;;;;;;;;;;;11.20;99.90;;;;;;5019927;28;20312;-75
2023/10/24 07:18:05;;;;;;;;;;;11.20;99.90;;;;;;5054022;28;19920;-72
2023/10/24 07:20:34;;;;;;;;;;;11.20;99.90;;;;;;4997857;28;19928;-73
2023/10/24 07:23:00;;;;;;;;;;;11.20;99.90;;;;;;5050035;28;19933;-74
2023/10/24 07:25:26;;;;;;;;;;;11.20;99.90;;;;;;4992458;28;19920;-73
2023/10/24 07:27:52;;;;;;;;;;;11.20;99.90;;;;;;5042795;28;19931;-74
2023/10/24 07:30:18;;;;;;;;;;;11.20;99.90;;;;;;4990283;28;19921;-75
2023/10/24 07:32:44;;;;;;;;;;;11.20;99.90;;;;;;5028854;28;20414;-74
2023/10/24 07:35:09;;;;;;;;;;;11.20;99.90;;;;;;4971917;28;19930;-73
2023/10/24 07:37:36;;;;;;;;;;;11.20;99.90;;;;;;5030105;28;20536;-72
2023/10/24 07:40:02;;;;;;;;;;;11.20;99.90;;;;;;4965478;28;20536;-72
2023/10/24 07:42:28;;;;;;;;;;;11.20;99.90;;;;;;5022680;28;19937;-72
2023/10/24 07:44:54;;;;;;;;;;;11.20;99.90;;;;;;4965729;28;19921;-72
2023/10/24 07:47:20;;;;;;;;;;;11.20;99.90;;;;;;5046208;28;19926;-72
2023/10/24 07:49:46;;;;;;;;;;;11.10;99.90;;;;;;5012220;28;19940;-71
2023/10/24 07:52:12;;;;;;;;;;;11.10;99.90;;;;;;4950307;28;133593;-71
2023/10/24 07:54:38;;;;;;;;;;;11.20;99.90;;;;;;5018856;28;19927;-71
2023/10/24 07:57:04;;;;;;;;;;;11.20;99.90;;;;;;4995404;28;19920;-73
2023/10/24 07:59:30;;;;;;;;;;;11.10;99.90;;;;;;5021672;28;19925;-73
2023/10/24 08:01:56;;;;;;;;;;;11.20;99.90;;;;;;4989869;28;19929;-72
2023/10/24 08:04:22;;;;;;;;;;;11.20;99.90;;;;;;5001629;28;19953;-72
2023/10/24 08:06:48;;;;;;;;;;;11.20;99.90;;;;;;4996381;28;19928;-71
2023/10/24 08:09:14;;;;;;;;;;;11.20;99.90;;;;;;5021687;28;19956;-71
2023/10/24 08:11:40;;;;;;;;;;;11.20;99.90;;;;;;5007947;28;19930;-70
2023/10/24 08:14:06;;;;;;;;;;;11.20;99.90;;;;;;5020403;28;19929;-71
2023/10/24 08:16:32;;;;;;;;;;;11.10;99.90;;;;;;5004752;28;19927;-71
2023/10/24 08:18:58;;;;;;;;;;;11.20;99.90;;;;;;5026260;28;20327;-71
2023/10/24 08:21:24;;;;;;;;;;;11.20;99.90;;;;;;5010532;28;19920;-71
2023/10/24 08:23:49;;;;;;;;;;;11.20;99.90;;;;;;5024822;28;20296;-71
2023/10/24 08:26:16;;;;;;;;;;;11.20;99.90;;;;;;4956787;28;19926;-71
2023/10/24 08:28:41;;;;;;;;;;;11.20;99.90;;;;;;5016403;28;19925;-72
2023/10/24 08:31:07;;;;;;;;;;;11.20;99.90;;;;;;4994700;28;20295;-73
2023/10/24 08:33:33;;;;;;;;;;;11.20;99.90;;;;;;5028829;28;19939;-73
2023/10/24 08:35:59;;;;;;;;;;;11.20;99.90;;;;;;4994723;28;20417;-74
2023/10/24 08:38:25;;;;;;;;;;;11.20;99.90;;;;;;5027268;28;20129;-73
2023/10/24 08:40:51;;;;;;;;;;;11.20;99.90;;;;;;4994397;28;19921;-73
2023/10/24 08:43:20;;;;;;;;;;;11.20;99.90;;;;;;5029059;28;19931;-72
2023/10/24 08:45:48;;;;;;;;;;;11.20;99.90;;;;;;5008252;28;20421;-73
2023/10/24 08:48:15;;;;;;;;;;;11.20;99.90;;;;;;5038289;28;20407;-72
2023/10/24 08:50:42;;;;;;;;;;;11.30;99.90;;;;;;4984540;28;111395;-72
2023/10/24 08:53:10;;;;;;;;;;;11.30;99.90;;;;;;5028119;28;19929;-72
2023/10/24 08:55:37;;;;;;;;;;;11.30;99.90;;;;;;4991154;28;20001;-72
2023/10/24 08:58:03;;;;;;;;;;;11.30;99.90;;;;;;5007571;28;19930;-72
2023/10/24 09:00:29;;;;;;;;;;;11.30;99.90;;;;;;4971712;28;20061;-72
2023/10/24 09:02:56;;;;;;;;;;;11.30;99.90;;;;;;5018925;28;20388;-71
2023/10/24 09:05:25;;;;;;;;;;;11.30;99.90;;;;;;4987747;28;19931;-71
2023/10/24 09:07:50;;;;;;;;;;;11.40;99.90;;;;;;5012586;28;19932;-71
2023/10/24 09:10:16;;;;;;;;;;;11.40;99.90;;;;;;4974893;28;20582;-71
2023/10/24 09:12:42;;;;;;;;;;;11.40;99.90;;;;;;5044071;28;19936;-71
2023/10/24 09:15:11;;;;;;;;;;;11.40;99.90;;;;;;4992221;28;19933;-72
2023/10/24 09:17:37;;;;;;;;;;;11.40;99.90;;;;;;5060290;28;19950;-71
2023/10/24 09:20:05;;;;;;;;;;;11.40;99.90;;;;;;4971054;28;19933;-71
2023/10/24 09:22:32;;;;;;;;;;;11.40;99.90;;;;;;5039669;28;19929;-71
2023/10/24 09:24:58;;;;;;;;;;;11.30;99.90;;;;;;4984427;28;19929;-71
2023/10/24 09:27:24;;;;;;;;;;;11.30;99.90;;;;;;5021169;28;20272;-71
2023/10/24 09:29:50;;;;;;;;;;;11.30;99.90;;;;;;4992154;28;19924;-70
2023/10/24 09:32:16;;;;;;;;;;;11.30;99.90;;;;;;4993099;28;19930;-70
2023/10/24 09:34:43;;;;;;;;;;;11.30;99.90;;;;;;5001611;28;19925;-71
2023/10/24 09:37:10;;;;;;;;;;;11.30;99.90;;;;;;4959222;28;20679;-70
2023/10/24 09:39:56;;;;;;;;;;;11.20;99.90;;;;;;5002256;28;20605;-71
2023/10/24 09:42:26;;;;;;;;;;;11.30;99.90;;;;;;4965255;28;19971;-71
2023/10/24 09:44:53;;;;;;;;;;;11.30;99.90;;;;;;4980698;28;19925;-71
2023/10/24 09:47:19;;;;;;;;;;;11.30;99.90;;;;;;5042595;28;19925;-70
2023/10/24 09:49:45;;;;;;;;;;;11.30;99.90;;;;;;5014939;28;19932;-70
2023/10/24 09:52:12;;;;;;;;;;;11.30;99.90;;;;;;4975878;28;107006;-71
2023/10/24 09:54:39;;;;;;;;;;;11.30;99.90;;;;;;5026453;28;19932;-70
2023/10/24 09:57:05;;;;;;;;;;;11.30;99.90;;;;;;5023454;28;19932;-70
2023/10/24 09:59:31;;;;;;;;;;;11.30;99.90;;;;;;5006255;28;19921;-70
2023/10/24 10:01:59;;;;;;;;;;;11.30;99.90;;;;;;4978722;28;19931;-71
2023/10/24 10:04:25;;;;;;;;;;;11.30;99.90;;;;;;5034038;28;19925;-71
2023/10/24 10:06:51;;;;;;;;;;;11.30;99.90;;;;;;4978953;28;19927;-70
2023/10/24 10:09:19;;;;;;;;;;;11.30;99.90;;;;;;5023721;28;20281;-71
2023/10/24 10:11:46;;;;;;;;;;;11.20;99.90;;;;;;5028248;28;19928;-71
2023/10/24 10:14:23;;;;;;;;;;;11.30;99.90;;;;;;5024198;28;19932;-70
2023/10/24 10:17:01;;;;;;;;;;;11.30;99.90;;;;;;4996566;28;19936;-71
2023/10/24 10:19:36;;;;;;;;;;;11.30;99.90;;;;;;5022903;28;19932;-71
2023/10/24 10:22:10;;;;;;;;;;;11.30;99.90;;;;;;5005220;28;20484;-71
2023/10/24 10:24:44;;;;;;;;;;;11.40;99.90;;;;;;5018129;28;19940;-71
2023/10/24 10:27:19;;;;;;;;;;;11.40;99.90;;;;;;4987221;28;148453;-70
2023/10/24 10:29:55;;;;;;;;;;;11.40;99.90;;;;;;4989947;28;19921;-70
2023/10/24 10:32:40;;;;;;;;;;;11.50;99.90;;;;;;5002234;28;20310;-71
2023/10/24 10:35:06;;;;;;;;;;;11.50;99.90;;;;;;5006433;28;59345;-71
2023/10/24 10:37:35;;;;;;;;;;;11.60;99.90;;;;;;5010804;28;19929;-70
2023/10/24 10:40:19;;;;;;;;;;;11.60;99.90;;;;;;4978783;28;19936;-71
2023/10/24 10:42:49;;;;;;;;;;;11.70;99.90;;;;;;5024118;28;19936;-70
2023/10/24 10:45:24;;;;;;;;;;;11.70;99.90;;;;;;4977581;28;19996;-70
2023/10/24 10:47:51;;;;;;;;;;;11.70;99.90;;;;;;5033197;28;20227;-71
2023/10/24 10:50:26;;;;;;;;;;;11.70;99.90;;;;;;4977821;28;57374;-70
2023/10/24 10:52:56;;;;;;;;;;;11.80;99.90;;;;;;5041971;28;19950;-69
2023/10/24 10:55:22;;;;;;;;;;;11.80;99.90;;;;;;5015965;28;20315;-69
2023/10/24 10:58:00;;;;;;;;;;;11.80;99.90;;;;;;5009237;28;20036;-69
2023/10/24 11:00:31;;;;;;;;;;;11.90;99.90;;;;;;4998411;28;19976;-70
2023/10/24 11:03:15;;;;;;;;;;;11.90;99.90;;;;;;5005799;28;19926;-70
2023/10/24 11:05:48;;;;;;;;;;;11.90;99.90;;;;;;4963357;28;153859;-70
2023/10/24 11:08:18;;;;;;;;;;;12.00;99.90;;;;;;5002668;28;19932;-70
2023/10/24 11:10:50;;;;;;;;;;;12.00;99.90;;;;;;4972030;28;19925;-70
2023/10/24 11:13:36;;;;;;;;;;;12.00;99.90;;;;;;5030161;28;19984;-70
2023/10/24 11:16:03;;;;;;;;;;;12.00;99.90;;;;;;4988824;28;19928;-70
2023/10/24 11:18:30;;;;;;;;;;;12.10;99.90;;;;;;5015261;28;19936;-72
2023/10/24 11:20:56;;;;;;;;;;;12.10;99.90;;;;;;4989773;28;19932;-72
2023/10/24 11:23:22;;;;;;;;;;;12.10;99.90;;;;;;5001809;28;20570;-72
2023/10/24 11:25:48;;;;;;;;;;;12.10;99.90;;;;;;4989330;28;20011;-72
2023/10/24 11:28:15;;;;;;;;;;;12.10;99.90;;;;;;5024157;28;19921;-72
2023/10/24 11:30:41;;;;;;;;;;;12.10;99.90;;;;;;4990561;28;19928;-73
2023/10/24 11:33:07;;;;;;;;;;;12.20;99.90;;;;;;5026737;28;19925;-72
2023/10/24 11:35:33;;;;;;;;;;;12.20;99.90;;;;;;4988744;28;19931;-73
2023/10/24 11:37:59;;;;;;;;;;;12.30;99.90;;;;;;5026886;28;19928;-72
2023/10/24 11:40:25;;;;;;;;;;;12.30;99.90;;;;;;5015593;28;19925;-72
2023/10/24 11:42:50;;;;;;;;;;;12.40;99.90;;;;;;5021850;28;20483;-72
2023/10/24 11:45:16;;;;;;;;;;;12.40;99.90;;;;;;4993342;28;19930;-72
2023/10/24 11:47:42;;;;;;;;;;;12.50;99.90;;;;;;5037256;28;20450;-73
2023/10/24 11:50:08;;;;;;;;;;;12.40;99.90;;;;;;4966321;28;248172;-72
2023/10/24 11:52:34;;;;;;;;;;;12.40;99.90;;;;;;5001775;28;20015;-72
2023/10/24 11:55:03;;;;;;;;;;;12.40;99.90;;;;;;4972632;28;19931;-70
2023/10/24 11:57:29;;;;;;;;;;;12.40;99.90;;;;;;5033220;28;19922;-70
2023/10/24 11:59:56;;;;;;;;;;;12.30;99.90;;;;;;5001693;28;19925;-70
2023/10/24 12:02:22;;;;;;;;;;;12.30;99.90;;;;;;5032285;28;19921;-70
2023/10/24 12:04:49;;;;;;;;;;;12.30;99.90;;;;;;5006704;28;19979;-71
2023/10/24 12:07:15;;;;;;;;;;;12.40;99.90;;;;;;4992373;28;20393;-70
2023/10/24 12:09:41;;;;;;;;;;;12.40;99.90;;;;;;5002666;28;19921;-70
2023/10/24 12:12:07;;;;;;;;;;;12.40;99.90;;;;;;5021589;28;19928;-70
2023/10/24 12:14:37;;;;;;;;;;;12.40;99.90;;;;;;5023270;28;20010;-71
2023/10/24 12:17:03;;;;;;;;;;;12.50;99.90;;;;;;5019489;28;19983;-70
2023/10/24 12:19:29;;;;;;;;;;;12.50;99.90;;;;;;5026822;28;20024;-70
2023/10/24 12:21:55;;;;;;;;;;;12.60;99.90;;;;;;5019250;28;19931;-70
2023/10/24 12:24:20;;;;;;;;;;;12.70;99.90;;;;;;5024413;28;19925;-71
2023/10/24 12:26:46;;;;;;;;;;;12.80;99.90;;;;;;5002429;28;19931;-70
2023/10/24 12:29:12;;;;;;;;;;;12.80;99.90;;;;;;5024781;28;19932;-70
2023/10/24 12:31:38;;;;;;;;;;;12.80;99.90;;;;;;5000355;28;19924;-71
2023/10/24 12:34:04;;;;;;;;;;;12.80;99.90;;;;;;5008929;28;19929;-70
2023/10/24 12:36:30;;;;;;;;;;;12.80;99.90;;;;;;5014114;28;20304;-70
2023/10/24 12:38:56;;;;;;;;;;;12.80;99.90;;;;;;5024500;28;19921;-71
2023/10/24 12:41:22;;;;;;;;;;;12.80;99.90;;;;;;5019509;28;19925;-70
2023/10/24 12:43:48;;;;;;;;;;;12.80;99.90;;;;;;5036151;28;20702;-71
2023/10/24 12:46:14;;;;;;;;;;;12.80;99.90;;;;;;5021748;28;20387;-71
2023/10/24 12:48:40;;;;;;;;;;;12.80;99.90;;;;;;5035306;28;19968;-71
2023/10/24 12:51:06;;;;;;;;;;;12.80;99.90;;;;;;4965622;28;265670;-71
2023/10/24 12:53:32;;;;;;;;;;;12.80;99.90;;;;;;5009695;28;19948;-71
2023/10/24 12:55:59;;;;;;;;;;;12.80;99.90;;;;;;4986985;28;20733;-71
2023/10/24 12:58:25;;;;;;;;;;;12.70;99.90;;;;;;5014452;28;19925;-70
2023/10/24 13:00:51;;;;;;;;;;;12.70;99.90;;;;;;4994655;28;19923;-71
2023/10/24 13:03:17;;;;;;;;;;;12.70;99.90;;;;;;5045348;28;20634;-71
2023/10/24 13:05:46;;;;;;;;;;;12.70;99.90;;;;;;4999964;28;19924;-71
2023/10/24 13:08:12;;;;;;;;;;;12.60;99.90;;;;;;5029022;28;19925;-71
2023/10/24 13:10:38;;;;;;;;;;;12.70;99.90;;;;;;4994456;28;19951;-70
2023/10/24 13:13:04;;;;;;;;;;;12.60;99.90;;;;;;5020989;28;20319;-70
2023/10/24 13:15:30;;;;;;;;;;;12.60;99.90;;;;;;5002620;28;19954;-71
2023/10/24 13:17:56;;;;;;;;;;;12.60;99.90;;;;;;5049800;28;19967;-72
2023/10/24 13:20:22;;;;;;;;;;;12.60;99.90;;;;;;4990761;28;19929;-71
2023/10/24 13:22:48;;;;;;;;;;;12.60;99.90;;;;;;5012801;28;20582;-71
2023/10/24 13:25:14;;;;;;;;;;;12.60;99.90;;;;;;4991251;28;19934;-71
2023/10/24 13:27:39;;;;;;;;;;;12.60;99.90;;;;;;5020254;28;20667;-71
2023/10/24 13:30:06;;;;;;;;;;;12.60;99.90;;;;;;4994747;28;19924;-71
2023/10/24 13:32:31;;;;;;;;;;;12.60;99.90;;;;;;5021342;28;20396;-71
2023/10/24 13:34:57;;;;;;;;;;;12.60;99.90;;;;;;4981486;28;19925;-71
2023/10/24 13:37:23;;;;;;;;;;;12.60;99.90;;;;;;5027818;28;19937;-71
2023/10/24 13:39:49;;;;;;;;;;;12.60;99.90;;;;;;4964531;28;19922;-70
2023/10/24 13:42:15;;;;;;;;;;;12.60;99.90;;;;;;5042622;28;20280;-71
2023/10/24 13:44:41;;;;;;;;;;;12.70;99.90;;;;;;5023445;28;19933;-71
2023/10/24 13:47:07;;;;;;;;;;;12.70;99.90;;;;;;5029667;28;19971;-71
2023/10/24 13:49:34;;;;;;;;;;;12.70;99.90;;;;;;5022881;28;19925;-71
2023/10/24 13:52:00;;;;;;;;;;;12.70;99.90;;;;;;5000745;28;204742;-71
2023/10/24 13:54:26;;;;;;;;;;;12.70;99.90;;;;;;5025568;28;19929;-71
2023/10/24 13:56:52;;;;;;;;;;;12.70;99.90;;;;;;4955355;28;19936;-72
2023/10/24 13:59:18;;;;;;;;;;;12.70;99.90;;;;;;5054545;28;19929;-72
2023/10/24 14:01:44;;;;;;;;;;;12.70;99.90;;;;;;5026879;28;20617;-71
2023/10/24 14:04:10;;;;;;;;;;;12.70;99.90;;;;;;5051684;28;19933;-71
2023/10/24 14:06:36;;;;;;;;;;;12.70;99.90;;;;;;4985579;28;20318;-71
2023/10/24 14:09:02;;;;;;;;;;;12.70;99.90;;;;;;5001104;28;19948;-71
2023/10/24 14:11:28;;;;;;;;;;;12.80;99.90;;;;;;4980502;28;243727;-71
2023/10/24 14:13:54;;;;;;;;;;;12.80;99.90;;;;;;5029169;28;19929;-72